createdAt,value
2022-12-03T00:03:24.959Z,62.89
2022-12-03T00:08:28.572Z,64.04
2022-12-03T00:13:32.145Z,64.89
2022-12-03T00:18:37.319Z,65.13
2022-12-03T00:23:42.415Z,65.98
2022-12-03T00:28:46.221Z,66.66
2022-12-03T00:33:51.483Z,66.81
2022-12-03T00:38:55.098Z,67.00
2022-12-03T00:43:58.635Z,67.70
2022-12-03T00:49:03.833Z,68.46
2022-12-03T00:54:07.397Z,68.11
2022-12-03T00:59:10.951Z,67.79
2022-12-03T01:04:16.211Z,68.84
2022-12-03T01:09:19.951Z,69.19
2022-12-03T01:14:23.711Z,69.79
2022-12-03T01:19:28.929Z,70.24
2022-12-03T01:24:32.477Z,70.08
2022-12-03T01:29:36.042Z,70.46
2022-12-03T01:34:41.266Z,70.16
2022-12-03T01:39:45.024Z,70.22
2022-12-03T01:44:51.618Z,71.02
2022-12-03T01:50:00.861Z,71.45
2022-12-03T01:55:08.276Z,71.06
2022-12-03T02:00:15.391Z,72.00
2022-12-03T02:05:23.289Z,71.76
2022-12-03T02:10:29.013Z,71.77
2022-12-03T02:15:32.667Z,71.39
2022-12-03T02:20:46.742Z,70.97
2022-12-03T02:25:52.930Z,70.34
2022-12-03T02:30:56.929Z,70.54
2022-12-03T02:36:03.560Z,70.14
2022-12-03T02:41:12.977Z,70.96
2022-12-03T02:46:16.601Z,71.03
2022-12-03T02:51:20.202Z,71.50
2022-12-03T02:56:29.444Z,72.33
2022-12-03T03:01:33.464Z,71.11
2022-12-03T03:06:37.260Z,70.99
2022-12-03T03:11:42.487Z,71.10
2022-12-03T03:16:46.089Z,71.69
2022-12-03T03:21:49.777Z,72.07
2022-12-03T03:26:55.381Z,72.22
2022-12-03T03:32:00.315Z,71.23
2022-12-03T03:37:03.978Z,71.65
2022-12-03T03:42:09.306Z,72.51
2022-12-03T03:47:13.910Z,72.73
2022-12-03T03:52:18.013Z,72.73
2022-12-03T03:57:23.430Z,72.95
2022-12-03T04:02:28.511Z,72.79
2022-12-03T04:07:32.183Z,73.33
2022-12-03T04:12:38.299Z,71.28
2022-12-03T04:17:41.949Z,73.23
2022-12-03T04:22:45.493Z,73.41
2022-12-03T04:27:50.688Z,74.16
2022-12-03T04:32:54.309Z,74.04
2022-12-03T04:37:57.855Z,74.20
2022-12-03T04:43:04.107Z,75.01
2022-12-03T04:48:07.822Z,74.24
2022-12-03T04:53:11.456Z,73.89
2022-12-03T04:58:16.741Z,74.27
2022-12-03T05:03:25.794Z,74.16
2022-12-03T05:08:29.565Z,74.42
2022-12-03T05:13:34.796Z,74.36
2022-12-03T05:18:39.099Z,74.55
2022-12-03T05:23:42.686Z,74.94
2022-12-03T05:28:47.926Z,75.14
2022-12-03T05:33:51.505Z,74.96
2022-12-03T05:38:55.071Z,75.59
2022-12-03T05:44:15.087Z,76.01
2022-12-03T05:49:22.560Z,75.57
2022-12-03T05:54:26.107Z,76.27
2022-12-03T05:59:31.344Z,76.36
2022-12-03T06:04:34.880Z,76.05
2022-12-03T06:09:38.429Z,75.97
2022-12-03T06:14:43.624Z,75.80
2022-12-03T06:19:47.254Z,75.57
2022-12-03T06:24:50.918Z,75.85
2022-12-03T06:29:56.182Z,75.88
2022-12-03T06:34:59.733Z,75.75
2022-12-03T06:40:03.448Z,76.71
2022-12-03T06:45:09.356Z,76.71
2022-12-03T06:50:13.292Z,76.32
2022-12-03T06:55:16.964Z,76.25
2022-12-03T07:00:23.129Z,76.29
2022-12-03T07:05:26.676Z,77.45
2022-12-03T07:10:30.365Z,77.28
2022-12-03T07:15:35.593Z,76.28
2022-12-03T07:20:39.146Z,76.86
2022-12-03T07:25:42.658Z,77.55
2022-12-03T07:30:47.889Z,77.65
2022-12-03T07:35:51.448Z,77.49
2022-12-03T07:40:54.994Z,77.48
2022-12-03T07:46:00.222Z,77.54
2022-12-03T07:51:03.814Z,77.76
2022-12-03T07:56:08.253Z,77.97
2022-12-03T08:01:13.624Z,78.30
2022-12-03T08:06:17.249Z,77.97
2022-12-03T08:11:20.792Z,78.26
2022-12-03T08:16:26.664Z,77.98
2022-12-03T08:21:35.188Z,78.59
2022-12-03T08:26:38.748Z,79.00
2022-12-03T08:31:48.184Z,78.93
2022-12-03T08:36:56.854Z,79.08
2022-12-03T08:42:13.684Z,79.53
2022-12-03T08:47:22.446Z,79.12
2022-12-03T08:52:32.276Z,79.56
2022-12-03T08:57:36.594Z,79.12
2022-12-03T09:02:46.896Z,79.71
2022-12-03T09:07:50.575Z,79.93
2022-12-03T09:12:54.956Z,79.81
2022-12-03T09:18:00.158Z,79.22
2022-12-03T09:23:04.140Z,79.29
2022-12-03T09:28:07.684Z,78.89
2022-12-03T09:33:13.750Z,78.41
2022-12-03T09:38:17.325Z,78.50
2022-12-03T09:43:21.462Z,78.16
2022-12-03T09:48:26.680Z,78.80
2022-12-03T09:53:31.410Z,79.33
2022-12-03T09:58:35.166Z,79.92
2022-12-03T10:03:45.598Z,80.32
2022-12-03T10:08:50.027Z,79.97
2022-12-03T10:13:55.947Z,78.30
2022-12-03T10:19:01.969Z,79.53
2022-12-03T10:24:26.496Z,80.22
2022-12-03T10:29:34.308Z,80.19
2022-12-03T10:34:41.313Z,80.51
2022-12-03T10:39:56.560Z,80.91
2022-12-03T10:45:19.440Z,81.82
2022-12-03T10:50:24.646Z,79.29
2022-12-03T10:55:29.754Z,78.14
2022-12-03T11:00:33.288Z,79.34
2022-12-03T11:05:39.285Z,80.64
2022-12-03T11:10:43.072Z,80.03
2022-12-03T11:15:46.862Z,79.35
2022-12-03T11:21:13.288Z,80.85
2022-12-03T11:26:19.560Z,79.87
2022-12-03T11:31:35.757Z,81.25
2022-12-03T11:37:18.867Z,81.77
2022-12-03T11:42:41.299Z,80.57
2022-12-03T11:47:46.899Z,80.08
2022-12-03T11:52:56.349Z,80.67
2022-12-03T11:58:00.944Z,80.20
2022-12-03T12:03:04.635Z,81.06
2022-12-03T12:08:19.801Z,80.67
2022-12-03T12:13:50.716Z,82.18
2022-12-03T12:18:55.736Z,80.97
2022-12-03T12:24:34.520Z,82.21
2022-12-03T12:29:39.545Z,83.08
2022-12-03T12:34:45.134Z,83.01
2022-12-03T12:39:53.445Z,83.16
2022-12-03T12:45:01.362Z,83.20
2022-12-03T12:50:11.639Z,82.60
2022-12-03T12:55:17.079Z,83.19
2022-12-03T13:00:22.892Z,83.25
2022-12-03T13:05:26.617Z,83.57
2022-12-03T13:10:41.500Z,82.55
2022-12-03T13:15:50.429Z,82.74
2022-12-03T13:20:54.624Z,83.03
2022-12-03T13:26:13.159Z,83.96
2022-12-03T13:31:28.259Z,85.58
2022-12-03T13:36:41.295Z,84.01
2022-12-03T13:41:46.994Z,81.44
2022-12-03T13:46:50.544Z,80.44
2022-12-03T13:51:54.134Z,81.12
2022-12-03T13:56:59.323Z,82.40
2022-12-03T14:02:02.925Z,82.57
2022-12-03T14:07:06.801Z,83.55
2022-12-03T14:12:12.008Z,83.97
2022-12-03T14:17:15.654Z,83.55
2022-12-03T14:22:19.208Z,83.45
2022-12-03T14:27:25.055Z,84.73
2022-12-03T14:32:28.684Z,85.40
2022-12-03T14:37:32.935Z,85.12
2022-12-03T14:42:38.381Z,85.48
2022-12-03T14:47:41.904Z,85.50
2022-12-03T14:52:45.470Z,85.61
2022-12-03T14:57:50.640Z,85.86
2022-12-03T15:02:54.236Z,85.86
2022-12-03T15:07:57.953Z,85.77
2022-12-03T15:13:03.203Z,85.23
2022-12-03T15:18:06.839Z,84.72
2022-12-03T15:23:14.293Z,84.69
2022-12-03T15:28:19.947Z,84.56
2022-12-03T15:33:23.515Z,84.33
2022-12-03T15:38:27.056Z,84.83
2022-12-03T15:43:32.251Z,84.13
2022-12-03T15:48:35.780Z,84.63
2022-12-03T15:53:39.377Z,84.30
2022-12-03T15:58:44.628Z,84.17
2022-12-03T16:03:48.197Z,84.57
2022-12-03T16:08:51.803Z,85.34
2022-12-03T16:13:57.087Z,86.58
2022-12-03T16:19:00.706Z,86.80
2022-12-03T16:24:04.283Z,86.50
2022-12-03T16:29:09.491Z,86.72
2022-12-03T16:34:13.053Z,87.12
2022-12-03T16:39:17.419Z,87.18
2022-12-03T16:44:22.648Z,86.78
2022-12-03T16:49:26.245Z,86.42
2022-12-03T16:54:29.779Z,86.71
2022-12-03T16:59:34.987Z,86.78
2022-12-03T17:04:38.559Z,86.98
2022-12-03T17:09:42.136Z,86.89
2022-12-03T17:14:47.397Z,86.58
2022-12-03T17:19:51.128Z,87.03
2022-12-03T17:24:57.891Z,86.66
2022-12-03T17:30:05.429Z,86.57
2022-12-03T17:35:10.871Z,86.79
2022-12-03T17:40:15.641Z,86.80
2022-12-03T17:45:20.936Z,85.96
2022-12-03T17:50:24.518Z,85.21
2022-12-03T17:55:38.322Z,85.18
2022-12-03T18:00:48.072Z,84.79
2022-12-03T18:05:51.643Z,85.78
2022-12-03T18:10:55.217Z,85.76
2022-12-03T18:16:00.477Z,85.21
2022-12-03T18:21:04.251Z,85.74
2022-12-03T18:26:08.035Z,85.64
2022-12-03T18:31:15.453Z,85.91
2022-12-03T18:36:22.962Z,86.14
2022-12-03T18:41:26.764Z,86.71
2022-12-03T18:47:02.068Z,86.47
2022-12-03T18:51:59.500Z,86.72
2022-12-03T18:57:03.347Z,87.47
2022-12-03T19:02:11.614Z,86.87
2022-12-03T19:07:16.769Z,87.30
2022-12-03T19:12:20.356Z,87.02
2022-12-03T19:17:25.560Z,87.57
2022-12-03T19:22:29.095Z,87.85
2022-12-03T19:27:32.951Z,88.64
2022-12-03T19:32:38.227Z,88.08
2022-12-03T19:37:41.865Z,87.03
2022-12-03T19:42:45.508Z,86.94
2022-12-03T19:47:50.834Z,86.97
2022-12-03T19:52:54.360Z,86.81
2022-12-03T19:57:58.014Z,87.56
2022-12-03T20:03:03.445Z,89.58
2022-12-03T20:08:08.347Z,86.97
2022-12-03T20:13:11.970Z,86.64
2022-12-03T20:18:17.141Z,87.48
2022-12-03T20:23:20.691Z,87.04
2022-12-03T20:28:24.281Z,86.88
2022-12-03T20:33:29.736Z,86.49
2022-12-03T20:38:33.366Z,86.93
2022-12-03T20:43:37.252Z,87.12
2022-12-03T20:48:43.444Z,86.55
2022-12-03T20:53:47.351Z,86.01
2022-12-03T20:58:51.264Z,86.20
2022-12-03T21:03:57.644Z,85.62
2022-12-03T21:09:00.651Z,87.31
2022-12-03T21:14:05.330Z,87.53
2022-12-03T21:19:10.523Z,87.46
2022-12-03T21:24:14.253Z,86.76
2022-12-03T21:29:17.960Z,86.77
2022-12-03T21:34:24.047Z,87.44
2022-12-03T21:39:27.613Z,86.61
2022-12-03T21:44:31.315Z,86.95
2022-12-03T21:49:36.595Z,86.83
2022-12-03T21:54:40.250Z,86.29
2022-12-03T21:59:43.818Z,87.29
2022-12-03T22:04:52.622Z,87.73
2022-12-03T22:09:56.381Z,87.51
2022-12-03T22:15:00.155Z,86.99
2022-12-03T22:20:06.675Z,86.61
2022-12-03T22:25:10.447Z,86.84
2022-12-03T22:30:14.313Z,87.67
2022-12-03T22:35:19.599Z,87.96
2022-12-03T22:40:23.177Z,88.56
2022-12-03T22:45:26.757Z,89.09
2022-12-03T22:50:32.011Z,89.59
2022-12-03T22:55:35.592Z,88.62
2022-12-03T23:00:40.598Z,86.66
2022-12-03T23:05:46.026Z,85.73
2022-12-03T23:10:51.351Z,85.93
2022-12-03T23:15:54.985Z,85.86
2022-12-03T23:21:00.661Z,85.60
2022-12-03T23:26:05.659Z,86.10
2022-12-03T23:31:18.216Z,85.49
2022-12-03T23:36:24.776Z,85.93
2022-12-03T23:41:28.525Z,86.52
2022-12-03T23:46:32.149Z,87.03
2022-12-03T23:51:37.509Z,86.22
2022-12-03T23:56:41.049Z,86.42
